Time;durP1;ratioP1;P1;durP2;ratioP2;P2;SDS_P1;SDS_P2;PMS_P1;PMS_P2;Temp;Humidity;BMP_temperature;BMP_pressure;BME280_temperature;BME280_humidity;BME280_pressure;Samples;Min_cycle;Max_cycle;Signal;HPM_P1;HPM_P2
2023/01/19 00:00:21;;;;;;;16.25;11.35;;;-2.10;99.90;;;;;;490067;242;27516;-73
2023/01/19 00:02:22;;;;;;;20.55;12.25;;;-2.10;99.90;;;;;;490085;242;28005;-73
2023/01/19 00:04:23;;;;;;;16.10;10.68;;;-2.10;99.90;;;;;;490055;242;27521;-73
2023/01/19 00:06:24;;;;;;;14.32;9.93;;;-2.10;99.90;;;;;;490089;242;27478;-73
2023/01/19 00:08:26;;;;;;;16.48;10.90;;;-2.10;99.90;;;;;;490067;242;27504;-73
2023/01/19 00:10:27;;;;;;;20.00;13.00;;;-2.10;99.90;;;;;;490095;242;27399;-73
2023/01/19 00:12:28;;;;;;;21.00;11.20;;;-2.10;99.90;;;;;;490059;242;27599;-73
2023/01/19 00:14:29;;;;;;;16.70;11.63;;;-2.10;99.90;;;;;;490050;242;28034;-72
2023/01/19 00:16:31;;;;;;;15.57;10.50;;;-2.00;99.90;;;;;;490078;242;28003;-73
2023/01/19 00:18:32;;;;;;;19.65;12.45;;;-2.00;99.90;;;;;;490070;242;27513;-72
2023/01/19 00:20:34;;;;;;;16.52;11.20;;;-1.90;99.90;;;;;;490073;242;27391;-72
2023/01/19 00:22:35;;;;;;;18.67;12.48;;;-1.90;99.90;;;;;;490066;242;27620;-73
2023/01/19 00:24:36;;;;;;;19.67;12.77;;;-1.90;99.90;;;;;;490073;242;27988;-72
2023/01/19 00:26:39;;;;;;;17.10;11.98;;;-1.90;99.90;;;;;;490055;242;27944;-73
2023/01/19 00:28:38;;;;;;;23.30;13.20;;;-1.80;99.90;;;;;;490027;242;29069;-73
2023/01/19 00:30:40;;;;;;;20.83;11.93;;;-1.70;99.90;;;;;;490076;242;27409;-73
2023/01/19 00:32:41;;;;;;;22.10;13.10;;;-1.60;99.90;;;;;;490101;242;27513;-73
2023/01/19 00:34:48;;;;;;;19.25;11.65;;;-1.50;99.90;;;;;;490119;242;27437;-72
2023/01/19 00:36:43;;;;;;;18.40;11.50;;;-1.40;99.90;;;;;;489931;242;27468;-73
2023/01/19 00:38:45;;;;;;;21.55;13.65;;;-1.30;99.90;;;;;;490123;242;27506;-73
2023/01/19 00:40:46;;;;;;;25.23;13.88;;;-1.30;99.90;;;;;;490117;242;27930;-73
2023/01/19 00:42:47;;;;;;;22.10;14.07;;;-1.20;99.90;;;;;;490118;242;27584;-73
2023/01/19 00:44:48;;;;;;;17.23;12.05;;;-1.10;99.90;;;;;;490121;242;27432;-72
2023/01/19 00:46:50;;;;;;;18.30;12.00;;;-1.10;99.90;;;;;;490104;242;27470;-73
2023/01/19 00:48:51;;;;;;;22.65;14.38;;;-1.00;99.90;;;;;;490114;242;27464;-73
2023/01/19 00:50:52;;;;;;;24.60;15.57;;;-1.00;99.90;;;;;;490082;242;27485;-73
2023/01/19 00:52:53;;;;;;;21.45;14.25;;;-1.00;99.90;;;;;;490078;242;27938;-73
2023/01/19 00:54:55;;;;;;;19.12;13.80;;;-0.90;99.90;;;;;;490045;242;29265;-73
2023/01/19 00:56:56;;;;;;;18.55;12.60;;;-0.90;99.90;;;;;;490101;242;27514;-72
2023/01/19 00:58:57;;;;;;;25.30;15.35;;;-0.90;99.90;;;;;;490074;242;27592;-73
2023/01/19 01:01:02;;;;;;;21.48;14.05;;;-0.80;99.90;;;;;;490085;242;27477;-73
2023/01/19 01:03:00;;;;;;;19.85;14.23;;;-0.80;99.90;;;;;;489959;242;27489;-73
2023/01/19 01:05:01;;;;;;;23.15;14.55;;;-0.80;99.90;;;;;;489810;242;29105;-73
2023/01/19 01:07:03;;;;;;;20.70;14.23;;;-0.80;99.90;;;;;;489452;242;27499;-73
2023/01/19 01:09:10;;;;;;;25.52;14.90;;;-0.70;99.90;;;;;;489731;242;27508;-72
2023/01/19 01:11:05;;;;;;;23.20;13.20;;;-0.70;99.90;;;;;;489854;242;27597;-73
2023/01/19 01:13:06;;;;;;;24.35;14.45;;;-0.70;99.90;;;;;;490088;242;27564;-73
2023/01/19 01:15:07;;;;;;;21.23;13.25;;;-0.70;99.90;;;;;;490085;242;27514;-73
2023/01/19 01:17:10;;;;;;;20.20;13.57;;;-0.70;99.90;;;;;;490076;242;27858;-72
2023/01/19 01:19:10;;;;;;;19.85;12.05;;;-0.60;99.90;;;;;;490042;242;27541;-73
2023/01/19 01:21:11;;;;;;;24.05;12.82;;;-0.60;99.90;;;;;;490099;242;27429;-73
2023/01/19 01:23:12;;;;;;;25.10;13.62;;;-0.60;99.90;;;;;;490103;242;27481;-73
2023/01/19 01:25:14;;;;;;;22.62;13.40;;;-0.60;99.90;;;;;;490093;242;27597;-73
2023/01/19 01:27:15;;;;;;;17.58;12.23;;;-0.50;99.90;;;;;;490094;242;27573;-73
2023/01/19 01:29:16;;;;;;;19.48;13.68;;;-0.50;99.90;;;;;;490090;242;28053;-73
2023/01/19 01:31:17;;;;;;;19.08;12.20;;;-0.40;99.90;;;;;;490072;242;28079;-73
2023/01/19 01:33:19;;;;;;;24.20;14.77;;;-0.50;99.90;;;;;;490104;242;27592;-73
2023/01/19 01:35:20;;;;;;;20.00;14.05;;;-0.40;99.90;;;;;;490077;242;27612;-73
2023/01/19 01:37:21;;;;;;;22.48;13.43;;;-0.40;99.90;;;;;;490076;242;27420;-73
2023/01/19 01:39:22;;;;;;;20.02;13.45;;;-0.40;99.90;;;;;;490064;242;27624;-73
2023/01/19 01:41:26;;;;;;;19.42;12.48;;;-0.40;99.90;;;;;;490074;242;28137;-73
2023/01/19 01:43:25;;;;;;;18.37;12.40;;;-0.30;99.90;;;;;;490012;242;28008;-73
2023/01/19 01:45:26;;;;;;;21.02;14.05;;;-0.30;99.90;;;;;;490079;242;27512;-73
2023/01/19 01:47:27;;;;;;;19.30;11.98;;;-0.40;99.90;;;;;;490086;242;27470;-73
2023/01/19 01:49:29;;;;;;;24.12;12.70;;;-0.40;99.90;;;;;;490071;242;27616;-73
2023/01/19 01:51:30;;;;;;;18.12;13.73;;;-0.30;99.90;;;;;;490076;242;27517;-73
2023/01/19 01:53:31;;;;;;;23.75;15.20;;;-0.30;99.90;;;;;;490066;242;27428;-73
2023/01/19 01:55:32;;;;;;;18.77;11.93;;;-0.30;99.90;;;;;;490095;242;28029;-73
2023/01/19 01:57:34;;;;;;;18.75;13.02;;;-0.30;99.90;;;;;;490089;242;27592;-73
2023/01/19 01:59:37;;;;;;;16.58;11.25;;;-0.30;99.90;;;;;;490101;242;27522;-73
2023/01/19 02:03:56;;;;;;;19.33;12.40;;;-0.30;99.90;;;;;;490038;242;27465;-73
2023/01/19 02:05:58;;;;;;;23.17;13.73;;;-0.20;99.90;;;;;;490100;242;27881;-73
2023/01/19 02:14:57;;;;;;;23.92;12.75;;;-0.20;99.90;;;;;;490093;242;28001;-73
2023/01/19 02:16:59;;;;;;;19.85;12.90;;;-0.20;99.90;;;;;;490076;242;29131;-73
2023/01/19 02:19:00;;;;;;;20.05;13.32;;;-0.10;99.90;;;;;;490095;242;27910;-73
2023/01/19 02:21:03;;;;;;;18.75;12.30;;;-0.10;99.90;;;;;;490103;242;27991;-73
2023/01/19 02:23:03;;;;;;;22.40;12.73;;;-0.20;99.90;;;;;;490035;242;27470;-73
2023/01/19 02:25:04;;;;;;;23.00;13.48;;;-0.10;99.90;;;;;;490066;242;27513;-73
2023/01/19 02:27:05;;;;;;;23.00;14.80;;;-0.10;99.90;;;;;;490073;242;27878;-73
2023/01/19 02:29:06;;;;;;;23.87;13.70;;;-0.10;99.90;;;;;;490077;242;27545;-73
2023/01/19 02:31:09;;;;;;;20.05;12.80;;;-0.10;99.90;;;;;;490078;242;28033;-73
2023/01/19 02:33:09;;;;;;;19.58;13.68;;;-0.10;99.90;;;;;;490059;242;27835;-73
2023/01/19 02:35:10;;;;;;;18.02;12.23;;;-0.10;99.90;;;;;;490074;242;27508;-73
2023/01/19 02:37:11;;;;;;;24.65;13.88;;;-0.10;99.90;;;;;;490068;242;27533;-73
2023/01/19 02:39:13;;;;;;;20.48;12.18;;;-0.10;99.90;;;;;;490093;242;27497;-73
2023/01/19 02:41:14;;;;;;;22.70;13.05;;;-0.10;99.90;;;;;;490065;242;27521;-72
2023/01/19 02:43:15;;;;;;;23.75;13.05;;;-0.10;99.90;;;;;;490078;242;28037;-73
2023/01/19 02:45:16;;;;;;;21.20;14.15;;;0.00;99.90;;;;;;490052;242;29059;-73
2023/01/19 02:47:18;;;;;;;24.40;14.68;;;0.00;99.90;;;;;;490080;242;27440;-73
2023/01/19 02:49:19;;;;;;;21.40;13.55;;;0.00;99.90;;;;;;490080;242;27453;-73
2023/01/19 02:51:20;;;;;;;27.58;15.75;;;0.00;99.90;;;;;;490077;242;27632;-73
2023/01/19 02:53:21;;;;;;;19.73;13.57;;;-0.10;99.90;;;;;;489996;242;27533;-73
2023/01/19 02:55:23;;;;;;;23.35;13.55;;;-0.10;99.90;;;;;;490082;242;27573;-73
2023/01/19 02:57:24;;;;;;;24.58;14.65;;;-0.10;99.90;;;;;;490085;242;27889;-73
2023/01/19 02:59:25;;;;;;;18.83;12.95;;;0.00;99.90;;;;;;490094;242;27840;-73
2023/01/19 03:01:27;;;;;;;18.65;13.07;;;-0.10;99.90;;;;;;490060;242;27410;-73
2023/01/19 03:03:28;;;;;;;20.92;12.68;;;-0.10;99.90;;;;;;490053;242;27517;-73
2023/01/19 03:05:29;;;;;;;17.92;11.18;;;-0.10;99.90;;;;;;490064;242;27505;-73
2023/01/19 03:07:30;;;;;;;22.13;13.23;;;-0.10;99.90;;;;;;490095;242;27449;-73
2023/01/19 03:09:32;;;;;;;19.58;13.60;;;-0.10;99.90;;;;;;490069;242;27517;-73
2023/01/19 03:11:33;;;;;;;18.98;11.98;;;-0.10;99.90;;;;;;490049;242;28100;-74
2023/01/19 03:13:34;;;;;;;20.55;13.50;;;-0.20;99.90;;;;;;490057;242;29031;-74
2023/01/19 03:15:35;;;;;;;25.92;14.63;;;-0.20;99.90;;;;;;490087;242;27472;-73
2023/01/19 03:17:37;;;;;;;22.52;13.43;;;-0.20;99.90;;;;;;490102;242;27615;-73
2023/01/19 03:19:38;;;;;;;26.98;15.40;;;-0.20;99.90;;;;;;490085;242;27481;-73
2023/01/19 03:21:41;;;;;;;24.95;15.60;;;-0.20;99.90;;;;;;490068;242;27585;-74
2023/01/19 03:23:40;;;;;;;22.23;13.90;;;-0.20;99.90;;;;;;490017;242;28811;-73
2023/01/19 03:25:42;;;;;;;23.92;13.07;;;-0.20;99.90;;;;;;490068;242;27899;-73
2023/01/19 03:27:43;;;;;;;29.20;15.30;;;-0.10;99.90;;;;;;490061;242;27534;-74
2023/01/19 03:29:44;;;;;;;22.52;13.00;;;-0.20;99.90;;;;;;490072;242;27470;-72
2023/01/19 03:31:45;;;;;;;23.85;15.70;;;-0.20;99.90;;;;;;490064;242;27605;-73
2023/01/19 03:33:47;;;;;;;20.75;14.20;;;-0.10;99.90;;;;;;490072;242;27585;-73
2023/01/19 03:35:48;;;;;;;21.52;13.62;;;-0.10;99.90;;;;;;490071;242;27943;-73
2023/01/19 03:37:49;;;;;;;25.48;13.90;;;-0.10;99.90;;;;;;490062;242;29098;-73
2023/01/19 03:39:50;;;;;;;19.30;12.73;;;0.00;99.90;;;;;;490092;242;27393;-73
2023/01/19 03:41:52;;;;;;;22.50;14.32;;;-0.10;99.90;;;;;;490031;242;27620;-73
2023/01/19 03:43:53;;;;;;;19.98;14.60;;;0.00;99.90;;;;;;490094;242;27872;-73
2023/01/19 03:45:54;;;;;;;23.27;13.82;;;0.00;99.90;;;;;;490095;242;27397;-73
2023/01/19 03:47:56;;;;;;;18.55;12.60;;;0.00;99.90;;;;;;490103;242;27522;-73
2023/01/19 03:49:57;;;;;;;17.67;12.77;;;0.00;99.90;;;;;;490097;242;27555;-73
2023/01/19 03:51:58;;;;;;;23.15;14.70;;;0.00;99.90;;;;;;490075;242;28004;-73
2023/01/19 03:54:00;;;;;;;22.00;14.05;;;0.00;99.90;;;;;;490090;242;28003;-73
2023/01/19 03:56:01;;;;;;;22.85;14.73;;;0.00;99.90;;;;;;490080;242;27588;-73
2023/01/19 03:58:02;;;;;;;22.67;13.82;;;0.00;99.90;;;;;;490094;242;27533;-73
2023/01/19 04:00:03;;;;;;;18.37;12.82;;;0.00;99.90;;;;;;490052;242;27466;-73
2023/01/19 04:02:04;;;;;;;21.15;14.63;;;0.00;99.90;;;;;;490062;242;27623;-73
2023/01/19 04:04:06;;;;;;;25.90;15.85;;;0.00;99.90;;;;;;490089;242;27525;-73
2023/01/19 04:06:07;;;;;;;25.10;14.77;;;0.00;99.90;;;;;;490078;242;27936;-73
2023/01/19 04:08:08;;;;;;;21.75;13.82;;;0.00;99.90;;;;;;490070;242;28076;-73
2023/01/19 04:10:11;;;;;;;30.52;16.05;;;0.00;99.90;;;;;;490047;242;27565;-73
2023/01/19 04:12:11;;;;;;;22.40;13.90;;;0.00;99.90;;;;;;490005;242;27504;-73
2023/01/19 04:14:12;;;;;;;20.33;14.77;;;0.00;99.90;;;;;;490092;242;27621;-73
2023/01/19 04:16:18;;;;;;;21.83;14.55;;;0.00;99.90;;;;;;490080;242;27393;-74
2023/01/19 04:18:14;;;;;;;22.48;13.95;;;0.10;99.90;;;;;;489890;242;27525;-73
2023/01/19 04:20:16;;;;;;;21.33;13.43;;;0.00;99.90;;;;;;490055;242;27474;-73
2023/01/19 04:22:17;;;;;;;27.45;14.77;;;0.00;99.90;;;;;;490070;242;27976;-73
2023/01/19 04:24:18;;;;;;;26.55;14.93;;;0.00;99.90;;;;;;490014;242;29026;-73
2023/01/19 04:26:19;;;;;;;17.60;12.82;;;0.00;99.90;;;;;;490056;242;27457;-73
2023/01/19 04:28:21;;;;;;;21.37;12.70;;;0.00;99.90;;;;;;490081;242;27513;-73
2023/01/19 04:30:22;;;;;;;23.00;14.00;;;0.00;99.90;;;;;;490057;242;27587;-73
2023/01/19 04:32:23;;;;;;;17.62;12.13;;;0.00;99.90;;;;;;490057;242;27513;-73
2023/01/19 04:34:24;;;;;;;19.10;10.82;;;0.00;99.90;;;;;;490076;242;27544;-73
2023/01/19 04:36:26;;;;;;;15.27;10.52;;;-0.10;99.90;;;;;;490080;242;27491;-73
2023/01/19 04:38:27;;;;;;;14.63;9.73;;;-0.10;99.90;;;;;;490074;242;28075;-73
2023/01/19 04:40:28;;;;;;;12.52;9.43;;;-0.10;99.90;;;;;;490062;242;27573;-73
2023/01/19 04:42:29;;;;;;;17.17;10.52;;;-0.10;99.90;;;;;;490058;242;27558;-73
2023/01/19 04:44:31;;;;;;;15.45;11.48;;;0.00;99.90;;;;;;490078;242;27441;-73
2023/01/19 04:46:32;;;;;;;13.93;10.30;;;-0.10;99.90;;;;;;490066;242;27537;-73
2023/01/19 04:48:33;;;;;;;14.43;10.70;;;0.00;99.90;;;;;;490054;242;27545;-73
2023/01/19 04:50:34;;;;;;;19.40;11.82;;;0.00;99.90;;;;;;490050;242;27478;-73
2023/01/19 04:52:36;;;;;;;15.27;11.10;;;0.00;99.90;;;;;;490068;242;27997;-73
2023/01/19 04:54:37;;;;;;;20.73;11.95;;;0.00;99.90;;;;;;490056;242;28228;-74
2023/01/19 04:56:39;;;;;;;14.87;11.10;;;0.00;99.90;;;;;;490080;242;27377;-73
2023/01/19 04:58:39;;;;;;;19.05;12.10;;;-0.10;99.90;;;;;;490043;242;27521;-73
2023/01/19 05:00:41;;;;;;;16.80;11.30;;;-0.10;99.90;;;;;;490078;242;27414;-73
2023/01/19 05:02:44;;;;;;;18.37;12.95;;;-0.10;99.90;;;;;;490076;242;27605;-73
2023/01/19 05:04:43;;;;;;;19.50;12.85;;;0.00;99.90;;;;;;490019;242;27513;-73
2023/01/19 05:06:45;;;;;;;19.90;12.75;;;-0.10;99.90;;;;;;490040;242;28044;-73
2023/01/19 05:08:46;;;;;;;21.20;13.70;;;0.00;99.90;;;;;;490066;242;28107;-74
2023/01/19 05:10:47;;;;;;;19.23;13.30;;;-0.10;99.90;;;;;;490023;242;27522;-73
2023/01/19 05:12:48;;;;;;;22.02;13.27;;;0.00;99.90;;;;;;490093;242;27477;-73
2023/01/19 05:14:50;;;;;;;20.45;13.05;;;0.00;99.90;;;;;;490099;242;27500;-73
2023/01/19 05:16:51;;;;;;;22.62;14.52;;;-0.10;99.90;;;;;;490116;242;27394;-73
2023/01/19 05:18:52;;;;;;;21.05;14.40;;;-0.10;99.90;;;;;;490114;242;27520;-73
2023/01/19 05:20:53;;;;;;;23.67;14.70;;;0.00;99.90;;;;;;490126;242;27970;-73
2023/01/19 05:22:55;;;;;;;21.70;13.65;;;0.00;99.90;;;;;;490115;242;27932;-73
2023/01/19 05:24:56;;;;;;;20.77;13.57;;;0.00;99.90;;;;;;490120;242;27509;-73
2023/01/19 05:26:57;;;;;;;20.85;13.75;;;0.00;99.90;;;;;;490116;242;27457;-73
2023/01/19 05:28:58;;;;;;;21.75;13.60;;;0.00;99.90;;;;;;490108;242;27600;-73
2023/01/19 05:31:00;;;;;;;22.13;15.05;;;0.00;99.90;;;;;;490122;242;27441;-73
2023/01/19 05:33:01;;;;;;;21.15;14.20;;;0.00;99.90;;;;;;490104;242;27378;-73
2023/01/19 05:35:02;;;;;;;21.40;14.20;;;0.00;99.90;;;;;;490080;242;27962;-73
2023/01/19 05:37:03;;;;;;;20.37;13.65;;;0.00;99.90;;;;;;490043;242;27940;-73
2023/01/19 05:39:05;;;;;;;18.87;13.05;;;0.00;99.90;;;;;;490086;242;27638;-73
2023/01/19 05:41:06;;;;;;;19.25;13.27;;;0.10;99.90;;;;;;490106;242;27420;-73
2023/01/19 05:43:07;;;;;;;22.17;14.70;;;0.10;99.90;;;;;;490099;242;27482;-73
2023/01/19 05:45:08;;;;;;;21.08;13.40;;;0.10;99.90;;;;;;490076;242;27538;-73
2023/01/19 05:47:10;;;;;;;25.90;16.23;;;0.10;99.90;;;;;;490047;242;27569;-73
2023/01/19 05:49:11;;;;;;;28.50;15.38;;;0.00;99.90;;;;;;490079;242;27640;-73
2023/01/19 05:51:12;;;;;;;22.08;14.82;;;0.00;99.90;;;;;;490048;242;28155;-73
2023/01/19 05:53:13;;;;;;;26.00;15.55;;;0.10;99.90;;;;;;490089;242;27938;-73
2023/01/19 05:55:15;;;;;;;23.70;15.48;;;0.10;99.90;;;;;;490090;242;27608;-73
2023/01/19 05:57:16;;;;;;;21.50;14.38;;;0.10;99.90;;;;;;490094;242;27569;-73
2023/01/19 05:59:22;;;;;;;26.02;15.98;;;0.10;99.90;;;;;;490061;242;27505;-73
2023/01/19 06:01:18;;;;;;;29.15;16.85;;;0.10;99.90;;;;;;489884;242;27765;-73
2023/01/19 06:03:20;;;;;;;27.27;15.93;;;0.10;99.90;;;;;;490086;242;27490;-73
2023/01/19 06:05:21;;;;;;;28.15;16.27;;;0.10;99.90;;;;;;490067;242;27521;-73
2023/01/19 06:07:22;;;;;;;27.42;16.65;;;0.10;99.90;;;;;;490042;242;28020;-73
2023/01/19 06:09:23;;;;;;;25.37;15.95;;;0.10;99.90;;;;;;490071;242;27995;-73
2023/01/19 06:11:25;;;;;;;26.33;15.57;;;0.10;99.90;;;;;;490095;242;27421;-73
2023/01/19 06:13:26;;;;;;;27.52;16.42;;;0.10;99.90;;;;;;490078;242;27478;-73
2023/01/19 06:15:27;;;;;;;29.05;16.77;;;0.10;99.90;;;;;;490063;242;27525;-73
2023/01/19 06:17:29;;;;;;;30.15;17.60;;;0.10;99.90;;;;;;490059;242;27477;-73
2023/01/19 06:19:30;;;;;;;27.85;16.55;;;0.10;99.90;;;;;;490053;242;27521;-73
2023/01/19 06:21:31;;;;;;;30.98;16.92;;;0.00;99.90;;;;;;490071;242;27965;-73
2023/01/19 06:23:32;;;;;;;27.62;15.60;;;0.00;99.90;;;;;;490107;242;28042;-73
2023/01/19 06:25:34;;;;;;;23.50;15.38;;;0.10;99.90;;;;;;490056;242;27421;-73
2023/01/19 06:27:35;;;;;;;30.20;18.45;;;0.10;99.90;;;;;;490068;242;27498;-73
2023/01/19 06:29:36;;;;;;;26.10;16.62;;;0.10;99.90;;;;;;490083;242;27596;-73
2023/01/19 06:31:37;;;;;;;26.77;16.73;;;0.10;99.90;;;;;;490074;242;27409;-73
2023/01/19 06:33:39;;;;;;;28.20;17.05;;;0.00;99.90;;;;;;490087;242;27501;-73
2023/01/19 06:35:40;;;;;;;28.75;16.45;;;0.10;99.90;;;;;;490069;242;27623;-73
2023/01/19 06:37:41;;;;;;;27.85;17.75;;;0.10;99.90;;;;;;490091;242;28025;-73
2023/01/19 06:39:44;;;;;;;28.60;17.25;;;0.10;99.90;;;;;;490075;242;27988;-73
2023/01/19 06:41:44;;;;;;;28.75;17.20;;;0.10;99.90;;;;;;490081;242;27597;-73
2023/01/19 06:43:45;;;;;;;29.85;17.52;;;0.10;99.90;;;;;;490129;242;27490;-74
2023/01/19 06:45:46;;;;;;;25.48;17.08;;;0.10;99.90;;;;;;490129;242;27425;-73
2023/01/19 06:47:47;;;;;;;28.65;17.40;;;0.10;99.90;;;;;;490101;242;27370;-73
2023/01/19 06:49:49;;;;;;;31.87;16.95;;;0.10;99.90;;;;;;490092;242;27522;-73
2023/01/19 06:51:50;;;;;;;30.42;16.77;;;0.10;99.90;;;;;;490098;242;27530;-73
2023/01/19 06:53:51;;;;;;;28.92;15.23;;;0.00;99.90;;;;;;490110;242;27973;-74
2023/01/19 06:55:52;;;;;;;18.75;13.95;;;0.00;99.90;;;;;;490084;242;29086;-73
2023/01/19 06:57:54;;;;;;;28.42;16.37;;;0.10;99.90;;;;;;490072;242;27560;-73
2023/01/19 06:59:55;;;;;;;26.62;17.30;;;0.00;99.90;;;;;;490071;242;27440;-73
2023/01/19 07:01:56;;;;;;;27.48;15.50;;;0.00;99.90;;;;;;490091;242;27425;-73
2023/01/19 07:03:57;;;;;;;22.40;14.30;;;0.10;99.90;;;;;;490077;242;27486;-73
2023/01/19 07:06:01;;;;;;;25.62;14.45;;;0.10;99.90;;;;;;490061;242;27532;-73
2023/01/19 07:08:00;;;;;;;24.48;15.52;;;0.10;99.90;;;;;;489981;242;27488;-73
2023/01/19 07:10:01;;;;;;;25.05;16.58;;;0.10;99.90;;;;;;490094;242;28022;-73
2023/01/19 07:12:02;;;;;;;23.95;15.90;;;0.20;99.90;;;;;;490063;242;28219;-73
2023/01/19 07:14:04;;;;;;;22.75;15.30;;;0.10;99.90;;;;;;490088;242;27581;-73
2023/01/19 07:16:05;;;;;;;26.50;16.55;;;0.10;99.90;;;;;;490092;242;27481;-73
2023/01/19 07:18:07;;;;;;;28.98;17.90;;;0.20;99.90;;;;;;490086;242;27481;-73
2023/01/19 07:20:07;;;;;;;26.45;16.52;;;0.20;99.90;;;;;;490069;242;27508;-74
2023/01/19 07:22:09;;;;;;;27.40;15.80;;;0.20;99.90;;;;;;490080;242;27525;-73
2023/01/19 07:24:10;;;;;;;26.08;15.70;;;0.20;99.90;;;;;;490063;242;27915;-73
2023/01/19 07:26:14;;;;;;;26.42;16.17;;;0.20;99.90;;;;;;490086;242;27977;-73
2023/01/19 07:28:14;;;;;;;25.70;15.20;;;0.10;99.90;;;;;;490009;242;27627;-73
2023/01/19 07:30:17;;;;;;;26.83;16.25;;;0.20;99.90;;;;;;490043;242;27569;-73
2023/01/19 07:32:15;;;;;;;24.02;16.95;;;0.10;99.90;;;;;;489620;242;27425;-73
2023/01/19 07:34:16;;;;;;;26.00;15.27;;;0.10;99.90;;;;;;490066;242;27481;-73
2023/01/19 07:36:18;;;;;;;24.70;15.90;;;0.20;99.90;;;;;;490055;242;27626;-74
2023/01/19 07:38:19;;;;;;;23.85;15.73;;;0.20;99.90;;;;;;490058;242;27485;-73
2023/01/19 07:40:20;;;;;;;25.80;15.48;;;0.20;99.90;;;;;;490064;242;28013;-73
2023/01/19 07:42:21;;;;;;;24.65;16.15;;;0.20;99.90;;;;;;490084;242;27911;-73
2023/01/19 07:44:23;;;;;;;24.85;15.10;;;0.20;99.90;;;;;;490061;242;27408;-73
2023/01/19 07:46:24;;;;;;;23.48;16.50;;;0.20;99.90;;;;;;490053;242;27615;-73
2023/01/19 07:48:25;;;;;;;24.90;14.87;;;0.20;99.90;;;;;;490016;242;27480;-73
2023/01/19 07:50:28;;;;;;;24.05;14.73;;;0.20;99.90;;;;;;490004;242;27628;-73
2023/01/19 07:52:28;;;;;;;28.10;17.12;;;0.20;99.90;;;;;;489966;242;27512;-73
2023/01/19 07:54:29;;;;;;;23.27;15.40;;;0.30;99.90;;;;;;489983;242;27565;-73
2023/01/19 07:56:31;;;;;;;22.85;14.73;;;0.30;99.90;;;;;;490001;242;28003;-73
2023/01/19 07:58:31;;;;;;;31.48;17.80;;;0.30;99.90;;;;;;490001;242;27927;-73
2023/01/19 08:00:33;;;;;;;31.15;17.15;;;0.30;99.90;;;;;;490065;242;27600;-73
2023/01/19 08:02:34;;;;;;;29.23;16.98;;;0.30;99.90;;;;;;490059;242;27635;-73
2023/01/19 08:04:35;;;;;;;24.33;15.70;;;0.40;99.90;;;;;;490033;242;27469;-73
2023/01/19 08:06:36;;;;;;;25.92;16.58;;;0.40;99.90;;;;;;490030;242;27532;-73
2023/01/19 08:08:38;;;;;;;29.23;17.75;;;0.40;99.90;;;;;;490069;242;27528;-73
2023/01/19 08:10:39;;;;;;;27.67;17.00;;;0.40;99.90;;;;;;490111;242;27970;-73
2023/01/19 08:12:41;;;;;;;26.58;16.48;;;0.40;99.90;;;;;;490117;242;27904;-73
2023/01/19 08:14:41;;;;;;;33.38;17.17;;;0.40;99.90;;;;;;490093;242;27845;-73
2023/01/19 08:16:43;;;;;;;28.60;16.35;;;0.40;99.90;;;;;;490100;242;27580;-73
2023/01/19 08:18:44;;;;;;;19.50;13.55;;;0.40;99.90;;;;;;490096;242;27506;-73
2023/01/19 08:20:45;;;;;;;21.20;14.23;;;0.40;99.90;;;;;;490105;242;27595;-73
2023/01/19 08:22:46;;;;;;;21.90;14.25;;;0.40;99.90;;;;;;490106;242;27432;-73
2023/01/19 08:24:48;;;;;;;24.98;14.70;;;0.40;99.90;;;;;;490087;242;27382;-73
2023/01/19 08:26:49;;;;;;;21.62;14.07;;;0.40;99.90;;;;;;490075;242;27965;-73
2023/01/19 08:28:50;;;;;;;29.67;19.45;;;0.40;99.90;;;;;;490063;242;28096;-73
2023/01/19 08:30:54;;;;;;;37.90;22.67;;;0.40;99.90;;;;;;490079;242;27482;-73
2023/01/19 08:33:07;;;;;;;25.42;16.90;;;0.40;99.90;;;;;;490054;242;27485;-73
2023/01/19 08:35:06;;;;;;;21.02;13.50;;;0.50;99.90;;;;;;490006;242;27934;-73
2023/01/19 08:37:07;;;;;;;21.25;13.73;;;0.50;99.90;;;;;;490058;242;28165;-73
2023/01/19 08:39:10;;;;;;;24.08;14.18;;;0.50;99.90;;;;;;490096;242;27989;-73
2023/01/19 08:41:10;;;;;;;24.37;15.38;;;0.50;99.90;;;;;;490004;242;27488;-73
2023/01/19 08:43:11;;;;;;;20.62;13.75;;;0.50;99.90;;;;;;490086;242;27525;-73
2023/01/19 08:45:12;;;;;;;22.62;15.38;;;0.60;99.90;;;;;;490061;242;27514;-74
2023/01/19 08:47:14;;;;;;;22.87;13.82;;;0.60;99.90;;;;;;490048;242;27501;-73
2023/01/19 08:49:15;;;;;;;20.00;13.00;;;0.60;99.90;;;;;;490057;242;27540;-74
2023/01/19 08:51:16;;;;;;;18.95;12.90;;;0.70;99.90;;;;;;490091;242;28054;-73
2023/01/19 08:53:19;;;;;;;15.43;11.52;;;0.70;99.90;;;;;;490078;242;27980;-73
2023/01/19 08:55:19;;;;;;;28.58;18.02;;;0.60;99.90;;;;;;490041;242;27781;-73
2023/01/19 08:57:20;;;;;;;23.75;14.73;;;0.70;99.90;;;;;;490116;242;27502;-73
2023/01/19 08:59:21;;;;;;;114.68;54.10;;;0.70;99.90;;;;;;490108;242;27434;-73
2023/01/19 09:01:22;;;;;;;51.13;35.95;;;0.80;99.90;;;;;;490103;242;27536;-74
2023/01/19 09:03:24;;;;;;;27.30;17.52;;;0.80;99.90;;;;;;490079;242;27516;-73
2023/01/19 09:05:25;;;;;;;23.25;13.55;;;0.90;99.90;;;;;;490068;242;27459;-73
2023/01/19 09:07:27;;;;;;;25.25;14.32;;;0.90;99.90;;;;;;490110;242;27913;-73
2023/01/19 09:09:27;;;;;;;21.17;12.60;;;0.80;99.90;;;;;;490054;242;27989;-73
2023/01/19 09:11:29;;;;;;;17.52;11.65;;;0.80;99.90;;;;;;490089;242;27557;-73
2023/01/19 09:13:30;;;;;;;49.92;21.35;;;0.70;99.90;;;;;;490094;242;27505;-73
2023/01/19 09:15:34;;;;;;;24.73;15.23;;;0.70;99.90;;;;;;490070;242;27555;-73
2023/01/19 09:17:33;;;;;;;20.20;12.40;;;0.70;99.90;;;;;;489994;242;27621;-73
2023/01/19 09:19:34;;;;;;;22.25;12.00;;;0.80;99.90;;;;;;490052;242;27429;-73
2023/01/19 09:21:35;;;;;;;17.85;11.35;;;0.80;99.90;;;;;;490079;242;27920;-74
2023/01/19 09:23:36;;;;;;;18.52;11.75;;;0.80;99.90;;;;;;490052;242;28076;-73
2023/01/19 09:25:38;;;;;;;15.43;11.02;;;0.80;99.90;;;;;;490054;242;28195;-73
2023/01/19 09:27:39;;;;;;;15.32;11.05;;;0.80;99.90;;;;;;490102;242;27569;-73
2023/01/19 09:29:40;;;;;;;13.80;10.45;;;0.90;99.90;;;;;;490069;242;27517;-73
2023/01/19 09:31:42;;;;;;;15.85;10.60;;;1.00;99.90;;;;;;490112;242;27474;-73
2023/01/19 09:33:43;;;;;;;17.08;11.80;;;1.20;99.90;;;;;;490039;242;27579;-73
2023/01/19 09:35:44;;;;;;;16.83;11.75;;;1.30;99.90;;;;;;490038;242;27501;-73
2023/01/19 09:37:46;;;;;;;13.95;10.45;;;1.30;99.90;;;;;;490058;242;28074;-73
2023/01/19 09:39:46;;;;;;;14.55;10.95;;;1.20;99.90;;;;;;490065;242;28046;-73
2023/01/19 09:41:48;;;;;;;20.50;11.43;;;1.20;99.90;;;;;;490058;242;27378;-73
2023/01/19 09:43:49;;;;;;;19.15;11.57;;;1.20;99.90;;;;;;490081;242;27428;-73
2023/01/19 09:45:50;;;;;;;20.67;11.35;;;1.20;99.90;;;;;;490082;242;27514;-74
2023/01/19 09:47:51;;;;;;;17.37;12.13;;;1.20;99.90;;;;;;490066;242;27420;-73
2023/01/19 09:49:53;;;;;;;14.10;10.70;;;1.20;99.90;;;;;;490077;242;27469;-73
2023/01/19 09:51:54;;;;;;;18.90;10.98;;;1.20;99.90;;;;;;490074;242;27554;-73
2023/01/19 09:53:55;;;;;;;17.45;11.68;;;1.30;99.90;;;;;;490083;242;28074;-73
2023/01/19 09:55:56;;;;;;;14.60;11.65;;;1.40;99.90;;;;;;490101;242;27903;-73
2023/01/19 09:57:58;;;;;;;16.55;11.27;;;1.50;99.90;;;;;;490088;242;27550;-74
2023/01/19 09:59:59;;;;;;;13.60;9.82;;;1.50;99.90;;;;;;490100;242;27522;-73
2023/01/19 10:02:00;;;;;;;17.35;10.95;;;1.50;99.90;;;;;;490077;242;27577;-73
2023/01/19 10:04:02;;;;;;;18.83;11.40;;;1.50;99.90;;;;;;490082;242;27390;-73
2023/01/19 10:06:03;;;;;;;14.15;9.93;;;1.50;99.90;;;;;;490077;242;27512;-73
2023/01/19 10:08:07;;;;;;;17.23;10.93;;;1.60;99.90;;;;;;490102;242;27474;-73
2023/01/19 10:10:05;;;;;;;13.48;9.45;;;1.50;99.90;;;;;;489988;242;27977;-73
2023/01/19 10:12:06;;;;;;;15.20;10.93;;;1.60;99.90;;;;;;490105;242;29873;-74
2023/01/19 10:14:08;;;;;;;15.57;11.05;;;1.70;99.90;;;;;;490110;242;27474;-74
2023/01/19 10:16:09;;;;;;;15.32;10.20;;;1.70;99.90;;;;;;490104;242;27424;-73
2023/01/19 10:18:10;;;;;;;15.93;10.07;;;1.80;99.90;;;;;;490103;242;27453;-73
2023/01/19 10:20:11;;;;;;;11.70;9.07;;;1.70;99.90;;;;;;490073;242;27570;-73
2023/01/19 10:22:13;;;;;;;14.45;9.95;;;1.60;99.90;;;;;;490093;242;27537;-74
2023/01/19 10:24:14;;;;;;;12.55;9.45;;;1.60;99.90;;;;;;490056;242;27533;-74
2023/01/19 10:26:15;;;;;;;20.45;10.15;;;1.50;99.90;;;;;;490087;242;28016;-73
2023/01/19 10:28:16;;;;;;;15.57;10.88;;;1.40;99.90;;;;;;490074;242;28009;-73